Terminal Aerodrome Forecast
Issued by NWS

Home | Current Version | Previous Version | Text Only | Print | Product List | Glossary On
Versions: 1 2 3 4 5 6 7 8 9 10 11 12 13
000
FTUS45 KGJT 271728
TAFVEL
TAF
KVEL 271728Z 2718/2818 34003KT P6SM -RA VCSH BKN045 OVC050
     FM271900 32005KT P6SM VCSH SCT045 BKN100
     FM272200 31006KT P6SM VCSH OVC040
      TEMPO 2722/2801 -RA OVC030
     FM280100 34008KT P6SM VCSH BKN045
     FM281200 33006KT P6SM OVC040
     FM281600 36014G23KT P6SM OVC045=

USA.gov is the U.S. government's official web portal to all federal, state and local government web resources and services.